Time,TemperatureF,DewpointF,PressureIn,WindDirection,WindDirectionDegrees,WindSpeedMPH,WindSpeedGustMPH,Humidity,HourlyPrecipIn,Conditions,Clouds,dailyrainin,SoftwareType,DateUTC
2013-12-14 00:00:00,33.3,30.9,30.26,ENE,73,0.0,0.0,91,0.00,,,-99.99,meteobridge,2013-12-14 08:00:00,
2013-12-14 00:05:00,33.4,31.1,30.26,ENE,73,0.0,0.0,91,0.00,,,0.00,meteobridge,2013-12-14 08:05:00,
2013-12-14 00:10:00,33.6,31.3,30.24,ENE,73,0.0,0.0,91,0.00,,,0.00,meteobridge,2013-12-14 08:10:00,
2013-12-14 00:15:00,33.6,31.3,30.24,ENE,72,0.0,0.0,91,0.00,,,0.00,meteobridge,2013-12-14 08:15:00,
2013-12-14 00:21:00,33.4,31.1,30.24,ENE,72,0.0,0.9,91,0.00,,,0.00,meteobridge,2013-12-14 08:21:00,
2013-12-14 00:26:00,33.4,31.1,30.24,ENE,73,0.0,0.0,91,0.00,,,0.00,meteobridge,2013-12-14 08:26:00,
2013-12-14 00:31:00,33.3,30.9,30.24,ENE,72,0.0,0.9,91,0.00,,,0.00,meteobridge,2013-12-14 08:31:00,
2013-12-14 00:36:00,33.1,30.7,30.24,ENE,73,0.0,0.0,91,0.00,,,0.00,meteobridge,2013-12-14 08:36:00,
2013-12-14 00:41:00,33.1,30.7,30.24,ENE,73,0.0,0.0,91,0.00,,,0.00,meteobridge,2013-12-14 08:41:00,
2013-12-14 00:46:00,33.1,30.7,30.24,ENE,72,0.0,0.9,91,0.00,,,0.00,meteobridge,2013-12-14 08:46:00,
2013-12-14 00:52:00,32.7,30.4,30.25,ENE,72,0.0,0.0,91,0.00,,,0.00,meteobridge,2013-12-14 08:52:00,
2013-12-14 00:57:00,32.9,30.6,30.25,ENE,73,0.0,0.0,91,0.00,,,0.00,meteobridge,2013-12-14 08:57:00,
2013-12-14 01:02:00,32.9,30.6,30.25,ENE,73,0.0,0.0,91,0.00,,,0.00,meteobridge,2013-12-14 09:02:00,
2013-12-14 01:07:00,32.9,30.6,30.25,ENE,73,0.0,0.0,91,0.00,,,0.00,meteobridge,2013-12-14 09:07:00,
2013-12-14 01:12:00,32.7,30.4,30.25,ENE,73,0.0,0.0,91,0.00,,,0.00,meteobridge,2013-12-14 09:12:00,
2013-12-14 01:18:00,32.5,30.2,30.25,ENE,73,0.0,0.0,91,0.00,,,0.00,meteobridge,2013-12-14 09:18:00,
2013-12-14 01:23:00,32.4,30.0,30.26,ENE,73,0.0,0.0,91,0.00,,,0.00,meteobridge,2013-12-14 09:23:00,
2013-12-14 01:28:00,32.2,30.2,30.26,ENE,72,0.0,0.9,92,0.00,,,0.00,meteobridge,2013-12-14 09:28:00,
2013-12-14 01:33:00,32.2,29.8,30.26,ENE,73,0.0,0.0,91,0.00,,,0.00,meteobridge,2013-12-14 09:33:00,
2013-12-14 01:38:00,32.2,30.2,30.26,ENE,73,0.0,0.0,92,0.00,,,0.00,meteobridge,2013-12-14 09:38:00,
2013-12-14 01:43:00,32.2,30.2,30.26,ENE,72,0.0,0.0,92,0.00,,,0.00,meteobridge,2013-12-14 09:43:00,
2013-12-14 01:49:00,32.2,30.2,30.26,ENE,72,0.0,0.0,92,0.00,,,0.00,meteobridge,2013-12-14 09:49:00,
2013-12-14 01:54:00,32.0,30.0,30.26,ENE,73,0.0,0.0,92,0.00,,,0.00,meteobridge,2013-12-14 09:54:00,
2013-12-14 01:59:00,31.8,29.8,30.26,ENE,73,0.0,0.0,92,0.00,,,0.00,meteobridge,2013-12-14 09:59:00,
2013-12-14 02:04:00,31.6,29.7,30.26,ENE,72,0.0,0.0,92,0.00,,,0.00,meteobridge,2013-12-14 10:04:00,
2013-12-14 02:09:00,31.6,29.7,30.27,ENE,72,0.0,0.0,92,0.00,,,0.00,meteobridge,2013-12-14 10:09:00,
2013-12-14 02:14:00,31.5,29.5,30.27,ENE,73,0.0,0.0,92,0.00,,,0.00,meteobridge,2013-12-14 10:14:00,
2013-12-14 02:20:00,31.3,29.3,30.27,ENE,73,0.0,0.0,92,0.00,,,0.00,meteobridge,2013-12-14 10:20:00,
2013-12-14 02:25:00,31.5,29.5,30.26,ENE,73,0.0,0.9,92,0.00,,,0.00,meteobridge,2013-12-14 10:25:00,
2013-12-14 02:30:00,31.3,29.3,30.26,ENE,73,0.0,0.0,92,0.00,,,0.00,meteobridge,2013-12-14 10:30:00,
2013-12-14 02:35:00,31.3,29.3,30.26,ENE,73,0.0,0.0,92,0.00,,,0.00,meteobridge,2013-12-14 10:35:00,
2013-12-14 02:40:00,31.3,29.3,30.26,ENE,73,0.0,0.0,92,0.00,,,0.00,meteobridge,2013-12-14 10:40:00,
2013-12-14 02:45:00,31.3,29.3,30.26,ENE,73,0.0,0.0,92,0.00,,,0.00,meteobridge,2013-12-14 10:45:00,
2013-12-14 02:51:00,31.1,29.1,30.26,ENE,73,0.0,0.0,92,0.00,,,0.00,meteobridge,2013-12-14 10:51:00,
2013-12-14 02:56:00,31.1,29.1,30.27,ENE,72,0.0,0.0,92,0.00,,,0.00,meteobridge,2013-12-14 10:56:00,
2013-12-14 03:01:00,31.1,29.3,30.27,ENE,73,0.0,0.0,93,0.00,,,0.00,meteobridge,2013-12-14 11:01:00,
2013-12-14 03:06:00,31.1,29.3,30.27,ENE,73,0.0,0.0,93,0.00,,,0.00,meteobridge,2013-12-14 11:06:00,
2013-12-14 03:11:00,30.9,28.9,30.27,ENE,73,0.0,0.0,92,0.00,,,0.00,meteobridge,2013-12-14 11:11:00,
2013-12-14 03:16:00,30.9,29.1,30.27,ENE,73,0.0,0.0,93,0.00,,,0.00,meteobridge,2013-12-14 11:16:00,
2013-12-14 03:22:00,30.9,29.1,30.27,ENE,73,0.0,0.0,93,0.00,,,0.00,meteobridge,2013-12-14 11:22:00,
2013-12-14 03:27:00,30.7,28.9,30.27,ENE,73,0.0,0.9,93,0.00,,,0.00,meteobridge,2013-12-14 11:27:00,
2013-12-14 03:32:00,30.7,28.9,30.27,ENE,73,0.0,0.0,93,0.00,,,0.00,meteobridge,2013-12-14 11:32:00,
2013-12-14 03:37:00,30.7,28.9,30.27,ENE,72,0.0,0.0,93,0.00,,,0.00,meteobridge,2013-12-14 11:37:00,
2013-12-14 03:42:00,30.7,28.9,30.27,ENE,72,0.0,0.0,93,0.00,,,0.00,meteobridge,2013-12-14 11:42:00,
2013-12-14 03:47:00,30.6,28.6,30.27,ENE,73,0.0,0.0,92,0.00,,,0.00,meteobridge,2013-12-14 11:47:00,
2013-12-14 03:53:00,30.6,28.8,30.27,ENE,73,0.0,0.0,93,0.00,,,0.00,meteobridge,2013-12-14 11:53:00,
2013-12-14 03:58:00,30.6,28.8,30.27,ENE,72,0.0,0.9,93,0.00,,,0.00,meteobridge,2013-12-14 11:58:00,
2013-12-14 04:03:00,30.6,28.8,30.27,ENE,73,0.0,0.0,93,0.00,,,0.00,meteobridge,2013-12-14 12:03:00,
2013-12-14 04:08:00,30.4,28.6,30.27,ENE,72,0.0,0.0,93,0.00,,,0.00,meteobridge,2013-12-14 12:08:00,
2013-12-14 04:13:00,30.4,28.6,30.27,ENE,72,0.0,0.9,93,0.00,,,0.00,meteobridge,2013-12-14 12:13:00,
2013-12-14 04:18:00,30.2,28.4,30.27,ENE,73,0.0,0.0,93,0.00,,,0.00,meteobridge,2013-12-14 12:18:00,
2013-12-14 04:24:00,30.0,28.2,30.27,ENE,72,0.0,0.9,93,0.00,,,0.00,meteobridge,2013-12-14 12:24:00,
2013-12-14 04:29:00,30.2,28.4,30.27,ENE,73,0.0,0.0,93,0.00,,,0.00,meteobridge,2013-12-14 12:29:00,
2013-12-14 04:34:00,30.2,28.4,30.27,ENE,73,0.0,0.0,93,0.00,,,0.00,meteobridge,2013-12-14 12:34:00,
2013-12-14 04:39:00,30.2,28.4,30.27,ENE,72,0.0,0.0,93,0.00,,,0.00,meteobridge,2013-12-14 12:39:00,
2013-12-14 04:44:00,30.0,28.2,30.27,ENE,73,0.0,0.0,93,0.00,,,0.00,meteobridge,2013-12-14 12:44:00,
2013-12-14 04:49:00,30.0,28.2,30.27,ENE,73,0.0,0.0,93,0.00,,,0.00,meteobridge,2013-12-14 12:49:00,
2013-12-14 04:55:00,30.2,28.4,30.27,ENE,72,0.0,0.0,93,0.00,,,0.00,meteobridge,2013-12-14 12:55:00,
2013-12-14 05:00:00,30.2,28.4,30.27,ENE,73,0.0,0.0,93,0.00,,,0.00,meteobridge,2013-12-14 13:00:00,
2013-12-14 05:05:00,30.0,28.2,30.27,ENE,73,0.0,0.0,93,0.00,,,0.00,meteobridge,2013-12-14 13:05:00,
2013-12-14 05:10:00,29.8,28.0,30.27,ENE,73,0.9,0.9,93,0.00,,,0.00,meteobridge,2013-12-14 13:10:00,
2013-12-14 05:15:00,29.8,28.0,30.27,ENE,73,0.0,0.0,93,0.00,,,0.00,meteobridge,2013-12-14 13:15:00,
2013-12-14 05:20:00,29.8,28.0,30.27,ENE,73,0.0,0.0,93,0.00,,,0.00,meteobridge,2013-12-14 13:20:00,
2013-12-14 05:25:00,29.8,28.0,30.27,ENE,72,0.0,0.0,93,0.00,,,0.00,meteobridge,2013-12-14 13:25:00,
2013-12-14 05:31:00,29.8,28.0,30.27,ENE,73,0.0,0.0,93,0.00,,,0.00,meteobridge,2013-12-14 13:31:00,
2013-12-14 05:36:00,29.7,27.9,30.27,ENE,73,0.0,0.0,93,0.00,,,0.00,meteobridge,2013-12-14 13:36:00,
2013-12-14 05:41:00,29.7,27.9,30.27,ENE,73,0.0,0.0,93,0.00,,,0.00,meteobridge,2013-12-14 13:41:00,
2013-12-14 05:46:00,29.5,27.7,30.27,ENE,72,0.0,0.0,93,0.00,,,0.00,meteobridge,2013-12-14 13:46:00,
2013-12-14 05:51:00,29.5,27.7,30.27,ENE,73,0.0,0.0,93,0.00,,,0.00,meteobridge,2013-12-14 13:51:00,
2013-12-14 05:56:00,29.3,27.5,30.28,ENE,73,0.0,0.0,93,0.00,,,0.00,meteobridge,2013-12-14 13:56:00,
2013-12-14 06:02:00,29.1,27.3,30.28,ENE,73,0.0,0.0,93,0.00,,,0.00,meteobridge,2013-12-14 14:02:00,
2013-12-14 06:07:00,29.3,27.9,30.28,ENE,73,0.0,0.9,94,0.00,,,0.00,meteobridge,2013-12-14 14:07:00,
2013-12-14 06:12:00,29.5,28.0,30.28,ENE,73,0.0,0.0,94,0.00,,,0.00,meteobridge,2013-12-14 14:12:00,
2013-12-14 06:17:00,29.3,27.9,30.28,ENE,73,0.0,0.0,94,0.00,,,0.00,meteobridge,2013-12-14 14:17:00,
2013-12-14 06:22:00,29.1,27.3,30.28,ENE,73,0.0,0.0,93,0.00,,,0.00,meteobridge,2013-12-14 14:22:00,
2013-12-14 06:27:00,29.1,27.7,30.28,ENE,72,0.0,0.9,94,0.00,,,0.00,meteobridge,2013-12-14 14:27:00,
2013-12-14 06:33:00,29.1,27.7,30.28,ENE,73,0.0,0.0,94,0.00,,,0.00,meteobridge,2013-12-14 14:33:00,
2013-12-14 06:38:00,29.1,27.7,30.29,ENE,73,0.0,0.0,94,0.00,,,0.00,meteobridge,2013-12-14 14:38:00,
2013-12-14 06:43:00,28.9,27.1,30.29,ENE,72,0.0,0.0,93,0.00,,,0.00,meteobridge,2013-12-14 14:43:00,
2013-12-14 06:48:00,28.9,27.1,30.29,ENE,73,0.0,0.0,93,0.00,,,0.00,meteobridge,2013-12-14 14:48:00,
2013-12-14 06:53:00,28.9,27.5,30.29,ENE,73,0.0,0.0,94,0.00,,,0.00,meteobridge,2013-12-14 14:53:00,
2013-12-14 06:58:00,28.9,27.5,30.29,ENE,73,0.0,0.0,94,0.00,,,0.00,meteobridge,2013-12-14 14:58:00,
2013-12-14 07:04:00,28.9,27.5,30.29,ENE,73,0.0,0.0,94,0.00,,,0.00,meteobridge,2013-12-14 15:04:00,
2013-12-14 07:09:00,29.1,27.7,30.31,ENE,72,0.0,0.9,94,0.00,,,0.00,meteobridge,2013-12-14 15:09:00,
2013-12-14 07:14:00,29.1,27.7,30.31,ENE,73,0.0,0.0,94,0.00,,,0.00,meteobridge,2013-12-14 15:14:00,
2013-12-14 07:19:00,28.9,27.5,30.31,ENE,73,0.0,0.9,94,0.00,,,0.00,meteobridge,2013-12-14 15:19:00,
2013-12-14 07:24:00,29.1,27.7,30.31,ENE,73,0.0,0.0,94,0.00,,,0.00,meteobridge,2013-12-14 15:24:00,
2013-12-14 07:29:00,29.1,27.7,30.31,ENE,73,0.0,0.9,94,0.00,,,0.00,meteobridge,2013-12-14 15:29:00,
2013-12-14 07:35:00,29.5,28.0,30.31,ENE,73,0.0,0.9,94,0.00,,,0.00,meteobridge,2013-12-14 15:35:00,
2013-12-14 07:40:00,29.5,28.0,30.32,ENE,73,0.0,0.0,94,0.00,,,0.00,meteobridge,2013-12-14 15:40:00,
2013-12-14 07:45:00,29.7,28.2,30.32,ENE,73,0.0,0.0,94,0.00,,,0.00,meteobridge,2013-12-14 15:45:00,
2013-12-14 07:50:00,29.7,28.2,30.32,ENE,73,0.0,0.0,94,0.00,,,0.00,meteobridge,2013-12-14 15:50:00,
2013-12-14 07:55:00,29.8,28.4,30.32,ENE,73,0.0,0.0,94,0.00,,,0.00,meteobridge,2013-12-14 15:55:00,
2013-12-14 08:00:00,30.0,28.6,30.32,ENE,73,0.0,0.9,94,0.00,,,0.00,meteobridge,2013-12-14 16:00:00,
2013-12-14 08:06:00,30.6,29.3,30.32,ENE,73,0.0,0.0,95,0.00,,,0.00,meteobridge,2013-12-14 16:06:00,
2013-12-14 08:11:00,31.6,30.4,30.32,ENE,73,0.0,0.9,95,0.00,,,0.00,meteobridge,2013-12-14 16:11:00,
2013-12-14 08:16:00,32.4,31.1,30.32,ENE,73,0.0,0.9,95,0.00,,,0.00,meteobridge,2013-12-14 16:16:00,
2013-12-14 08:21:00,32.7,31.5,30.32,ENE,73,0.0,0.9,95,0.00,,,0.00,meteobridge,2013-12-14 16:21:00,
2013-12-14 08:26:00,33.3,32.0,30.33,ENE,73,0.0,0.0,95,0.00,,,0.00,meteobridge,2013-12-14 16:26:00,
2013-12-14 08:32:00,33.6,32.4,30.33,ENE,73,0.0,0.0,95,0.00,,,0.00,meteobridge,2013-12-14 16:32:00,
2013-12-14 08:37:00,34.3,33.1,30.33,ENE,72,0.9,0.9,95,0.00,,,0.00,meteobridge,2013-12-14 16:37:00,
2013-12-14 08:42:00,35.2,34.0,30.33,ENE,73,0.0,0.0,95,0.00,,,0.00,meteobridge,2013-12-14 16:42:00,
2013-12-14 08:47:00,36.0,34.7,30.33,ENE,73,0.0,0.0,95,0.00,,,0.00,meteobridge,2013-12-14 16:47:00,
2013-12-14 08:52:00,36.9,35.6,30.34,ENE,73,0.0,0.0,95,0.00,,,0.00,meteobridge,2013-12-14 16:52:00,
2013-12-14 08:57:00,37.8,36.5,30.34,ENE,72,0.0,0.0,95,0.00,,,0.00,meteobridge,2013-12-14 16:57:00,
2013-12-14 09:03:00,38.5,36.9,30.34,ENE,73,0.0,0.0,94,0.00,,,0.00,meteobridge,2013-12-14 17:03:00,
2013-12-14 09:08:00,39.4,37.8,30.34,ENE,72,0.0,0.9,94,0.00,,,0.00,meteobridge,2013-12-14 17:08:00,
2013-12-14 09:13:00,40.3,38.5,30.34,ENE,72,0.0,0.9,93,0.00,,,0.00,meteobridge,2013-12-14 17:13:00,
2013-12-14 09:18:00,41.4,39.0,30.34,ENE,73,0.0,0.0,91,0.00,,,0.00,meteobridge,2013-12-14 17:18:00,
2013-12-14 09:23:00,42.4,39.7,30.34,ENE,72,0.0,0.0,90,0.00,,,0.00,meteobridge,2013-12-14 17:23:00,
2013-12-14 09:28:00,43.9,40.6,30.34,ENE,73,0.0,0.0,88,0.00,,,0.00,meteobridge,2013-12-14 17:28:00,
2013-12-14 09:33:00,44.8,40.5,30.34,ENE,73,0.0,0.0,85,0.00,,,0.00,meteobridge,2013-12-14 17:33:00,
2013-12-14 09:39:00,45.7,40.5,30.35,ENE,72,0.0,0.9,82,0.00,,,0.00,meteobridge,2013-12-14 17:39:00,
2013-12-14 09:44:00,46.4,40.3,30.35,ENE,73,0.0,0.0,79,0.00,,,0.00,meteobridge,2013-12-14 17:44:00,
2013-12-14 09:49:00,47.5,41.0,30.35,ENE,73,0.0,0.0,78,0.00,,,0.00,meteobridge,2013-12-14 17:49:00,
2013-12-14 09:54:00,48.7,41.2,30.34,ENE,72,0.0,0.0,75,0.01,,,0.01,meteobridge,2013-12-14 17:54:00,
2013-12-14 10:00:00,49.6,41.0,30.34,ENE,73,0.0,0.0,72,0.01,,,0.01,meteobridge,2013-12-14 18:00:00,
2013-12-14 10:05:00,50.5,41.2,30.34,ENE,72,0.0,0.9,70,0.01,,,0.01,meteobridge,2013-12-14 18:05:00,
2013-12-14 10:10:00,50.7,40.5,30.34,ENE,72,0.0,0.9,68,0.01,,,0.01,meteobridge,2013-12-14 18:10:00,
2013-12-14 10:15:00,50.9,40.6,30.34,ENE,72,0.0,0.9,68,0.01,,,0.01,meteobridge,2013-12-14 18:15:00,
2013-12-14 10:21:00,51.4,40.8,30.34,ENE,72,0.0,0.0,67,0.01,,,0.01,meteobridge,2013-12-14 18:21:00,
2013-12-14 10:26:00,52.2,40.8,30.34,ENE,72,0.0,0.0,65,0.01,,,0.01,meteobridge,2013-12-14 18:26:00,
2013-12-14 10:31:00,52.2,40.8,30.34,ENE,72,0.0,0.0,65,0.01,,,0.01,meteobridge,2013-12-14 18:31:00,
2013-12-14 10:36:00,53.1,41.5,30.34,ENE,73,0.0,0.0,65,0.01,,,0.01,meteobridge,2013-12-14 18:36:00,
2013-12-14 10:41:00,54.0,41.2,30.34,ENE,73,0.0,0.9,62,0.01,,,0.01,meteobridge,2013-12-14 18:41:00,
2013-12-14 10:46:00,54.0,39.9,30.34,ENE,73,0.0,0.9,59,0.01,,,0.01,meteobridge,2013-12-14 18:46:00,
2013-12-14 10:51:00,54.1,40.6,30.34,ENE,72,0.0,0.0,60,0.00,,,0.01,meteobridge,2013-12-14 18:51:00,
2013-12-14 10:57:00,54.9,40.8,30.33,ENE,72,0.9,0.9,59,0.00,,,0.01,meteobridge,2013-12-14 18:57:00,
2013-12-14 11:02:00,54.9,39.9,30.33,ENE,73,0.0,0.9,57,0.00,,,0.01,meteobridge,2013-12-14 19:02:00,
2013-12-14 11:07:00,55.0,40.1,30.32,ENE,72,0.0,0.9,57,0.00,,,0.01,meteobridge,2013-12-14 19:07:00,
2013-12-14 11:12:00,55.4,40.5,30.32,ENE,73,0.0,0.9,57,0.00,,,0.01,meteobridge,2013-12-14 19:12:00,
2013-12-14 11:17:00,56.3,40.8,30.32,ENE,73,0.0,0.9,56,0.00,,,0.01,meteobridge,2013-12-14 19:17:00,
2013-12-14 11:22:00,56.3,40.8,30.32,ENE,73,0.0,0.9,56,0.00,,,0.01,meteobridge,2013-12-14 19:22:00,
2013-12-14 11:28:00,56.8,40.8,30.32,ENE,72,0.0,0.9,55,0.00,,,0.01,meteobridge,2013-12-14 19:28:00,
2013-12-14 11:33:00,57.4,40.8,30.32,ENE,73,0.0,0.9,54,0.00,,,0.01,meteobridge,2013-12-14 19:33:00,
2013-12-14 11:38:00,57.4,41.4,30.30,ENE,73,0.0,0.9,55,0.00,,,0.01,meteobridge,2013-12-14 19:38:00,
2013-12-14 11:43:00,58.5,41.4,30.30,ENE,73,0.0,0.9,53,0.00,,,0.01,meteobridge,2013-12-14 19:43:00,
2013-12-14 11:48:00,59.4,41.2,30.30,ENE,73,0.0,0.9,51,0.00,,,0.01,meteobridge,2013-12-14 19:48:00,
2013-12-14 11:53:00,59.4,41.2,30.29,ENE,72,0.9,0.9,51,0.00,,,0.01,meteobridge,2013-12-14 19:53:00,
2013-12-14 11:58:00,59.4,40.6,30.29,ENE,73,0.0,0.9,50,0.00,,,0.01,meteobridge,2013-12-14 19:58:00,
2013-12-14 12:04:00,59.7,41.0,30.29,ENE,73,0.0,0.9,50,0.00,,,0.01,meteobridge,2013-12-14 20:04:00,
2013-12-14 12:09:00,60.3,41.5,30.28,ENE,73,0.0,0.9,50,0.00,,,0.01,meteobridge,2013-12-14 20:09:00,
2013-12-14 12:14:00,61.0,41.7,30.28,ENE,73,0.0,0.9,49,0.00,,,0.01,meteobridge,2013-12-14 20:14:00,
2013-12-14 12:19:00,61.3,42.1,30.28,ENE,73,0.9,0.9,49,0.00,,,0.01,meteobridge,2013-12-14 20:19:00,
2013-12-14 12:24:00,61.9,42.4,30.27,ENE,73,0.0,0.9,49,0.00,,,0.01,meteobridge,2013-12-14 20:24:00,
2013-12-14 12:29:00,62.4,42.4,30.27,ENE,73,0.9,0.9,48,0.00,,,0.01,meteobridge,2013-12-14 20:29:00,
2013-12-14 12:35:00,63.1,42.6,30.27,ENE,72,0.9,0.9,47,0.00,,,0.01,meteobridge,2013-12-14 20:35:00,
2013-12-14 12:40:00,63.0,41.9,30.27,ENE,73,0.0,0.0,46,0.00,,,0.01,meteobridge,2013-12-14 20:40:00,
2013-12-14 12:45:00,63.7,42.4,30.27,ENE,72,0.0,0.9,46,0.00,,,0.01,meteobridge,2013-12-14 20:45:00,
2013-12-14 12:50:00,64.0,42.3,30.27,ENE,72,0.0,0.9,45,0.00,,,0.01,meteobridge,2013-12-14 20:50:00,
2013-12-14 12:55:00,64.2,41.9,30.26,ENE,72,0.0,0.9,44,0.00,,,0.01,meteobridge,2013-12-14 20:55:00,
2013-12-14 13:00:00,64.2,41.9,30.26,ENE,72,0.0,0.9,44,0.00,,,0.01,meteobridge,2013-12-14 21:00:00,
2013-12-14 13:06:00,64.8,41.7,30.26,ENE,73,0.0,0.9,43,0.00,,,0.01,meteobridge,2013-12-14 21:06:00,
2013-12-14 13:11:00,65.7,41.4,30.25,ENE,73,0.0,0.9,41,0.00,,,0.01,meteobridge,2013-12-14 21:11:00,
2013-12-14 13:16:00,65.7,41.4,30.25,ENE,73,0.0,0.9,41,0.00,,,0.01,meteobridge,2013-12-14 21:16:00,
2013-12-14 13:21:00,66.2,41.2,30.25,ENE,73,0.0,0.9,40,0.00,,,0.01,meteobridge,2013-12-14 21:21:00,
2013-12-14 13:26:00,66.7,41.0,30.24,ENE,72,0.9,0.9,39,0.00,,,0.01,meteobridge,2013-12-14 21:26:00,
2013-12-14 13:31:00,66.6,40.8,30.24,ENE,72,0.0,0.9,39,0.00,,,0.01,meteobridge,2013-12-14 21:31:00,
2013-12-14 13:37:00,66.4,40.6,30.24,ENE,74,0.0,0.9,39,0.00,,,0.01,meteobridge,2013-12-14 21:37:00,
2013-12-14 13:42:00,66.6,40.8,30.24,ENE,74,0.0,0.9,39,0.00,,,0.01,meteobridge,2013-12-14 21:42:00,
2013-12-14 13:47:00,67.1,41.9,30.24,ENE,74,0.0,0.9,40,0.00,,,0.01,meteobridge,2013-12-14 21:47:00,
2013-12-14 13:52:00,67.5,41.0,30.24,ENE,74,0.0,0.9,38,0.00,,,0.01,meteobridge,2013-12-14 21:52:00,
2013-12-14 13:57:00,67.6,41.7,30.24,ENE,74,0.9,2.0,39,0.00,,,0.01,meteobridge,2013-12-14 21:57:00,
2013-12-14 14:02:00,67.5,41.0,30.24,ENE,74,0.0,0.9,38,0.00,,,0.01,meteobridge,2013-12-14 22:02:00,
2013-12-14 14:08:00,67.5,40.3,30.24,ENE,74,0.0,0.9,37,0.00,,,0.01,meteobridge,2013-12-14 22:08:00,
2013-12-14 14:13:00,67.5,40.3,30.24,ENE,74,0.0,0.9,37,0.00,,,0.01,meteobridge,2013-12-14 22:13:00,
2013-12-14 14:18:00,67.3,40.1,30.24,ENE,74,0.9,2.0,37,0.00,,,0.01,meteobridge,2013-12-14 22:18:00,
2013-12-14 14:23:00,66.4,39.9,30.24,ENE,76,0.9,2.0,38,0.00,,,0.01,meteobridge,2013-12-14 22:23:00,
2013-12-14 14:28:00,65.7,40.1,30.24,ENE,76,0.0,0.9,39,0.00,,,0.01,meteobridge,2013-12-14 22:28:00,
2013-12-14 14:34:00,65.7,40.6,30.24,ENE,75,0.0,0.9,40,0.00,,,0.01,meteobridge,2013-12-14 22:34:00,
2013-12-14 14:39:00,66.2,40.5,30.24,ENE,75,0.0,0.9,39,0.00,,,0.01,meteobridge,2013-12-14 22:39:00,
2013-12-14 14:44:00,65.8,40.1,30.24,ENE,75,0.0,0.9,39,0.00,,,0.01,meteobridge,2013-12-14 22:44:00,
2013-12-14 14:49:00,66.0,40.3,30.24,ENE,76,0.9,0.9,39,0.00,,,0.01,meteobridge,2013-12-14 22:49:00,
2013-12-14 14:54:00,65.5,41.2,30.24,ENE,75,0.9,0.9,41,0.00,,,0.01,meteobridge,2013-12-14 22:54:00,
2013-12-14 14:59:00,65.5,41.7,30.24,ENE,76,0.0,0.9,42,0.00,,,0.01,meteobridge,2013-12-14 22:59:00,
2013-12-14 15:05:00,65.1,41.5,30.24,ENE,76,0.9,0.9,42,0.00,,,0.01,meteobridge,2013-12-14 23:05:00,
2013-12-14 15:10:00,65.1,41.5,30.24,ENE,76,0.0,0.9,42,0.00,,,0.01,meteobridge,2013-12-14 23:10:00,
2013-12-14 15:15:00,65.5,41.7,30.24,ENE,75,0.0,0.9,42,0.00,,,0.01,meteobridge,2013-12-14 23:15:00,
2013-12-14 15:20:00,65.5,41.2,30.24,ENE,76,0.9,0.9,41,0.00,,,0.01,meteobridge,2013-12-14 23:20:00,
2013-12-14 15:25:00,65.1,41.5,30.24,ENE,75,0.0,2.0,42,0.00,,,0.01,meteobridge,2013-12-14 23:25:00,
2013-12-14 15:30:00,64.6,41.0,30.24,ENE,76,0.0,0.9,42,0.00,,,0.01,meteobridge,2013-12-14 23:30:00,
2013-12-14 15:35:00,63.7,40.1,30.24,ENE,75,0.0,0.9,42,0.00,,,0.01,meteobridge,2013-12-14 23:35:00,
2013-12-14 15:41:00,63.1,40.3,30.25,ENE,77,0.0,0.9,43,0.00,,,0.01,meteobridge,2013-12-14 23:41:00,
2013-12-14 15:46:00,63.0,40.1,30.25,ENE,76,0.0,0.9,43,0.00,,,0.01,meteobridge,2013-12-14 23:46:00,
2013-12-14 15:51:00,61.9,40.3,30.25,ENE,76,0.0,0.9,45,0.00,,,0.01,meteobridge,2013-12-14 23:51:00,
2013-12-14 15:56:00,61.0,40.1,30.26,ENE,75,0.0,0.9,46,0.00,,,0.01,meteobridge,2013-12-14 23:56:00,
2013-12-14 16:01:00,60.1,39.7,30.26,ENE,76,0.0,0.9,47,0.00,,,0.01,meteobridge,2013-12-15 00:01:00,
2013-12-14 16:07:00,59.4,39.7,30.26,ENE,76,0.0,0.0,48,0.00,,,0.01,meteobridge,2013-12-15 00:07:00,
2013-12-14 16:12:00,58.8,39.7,30.26,ENE,75,0.0,0.0,49,0.00,,,0.01,meteobridge,2013-12-15 00:12:00,
2013-12-14 16:17:00,58.3,39.7,30.26,ENE,76,0.0,0.0,50,0.00,,,0.01,meteobridge,2013-12-15 00:17:00,
2013-12-14 16:22:00,57.6,39.6,30.26,ENE,77,0.0,0.0,51,0.00,,,0.01,meteobridge,2013-12-15 00:22:00,
2013-12-14 16:27:00,57.0,40.1,30.26,ENE,75,0.0,0.9,53,0.00,,,0.01,meteobridge,2013-12-15 00:27:00,
2013-12-14 16:32:00,56.7,39.7,30.26,ENE,75,0.0,0.9,53,0.00,,,0.01,meteobridge,2013-12-15 00:32:00,
2013-12-14 16:40:00,55.9,39.9,30.26,ENE,75,0.0,0.0,55,0.00,,,0.01,meteobridge,2013-12-15 00:40:00,
2013-12-14 16:45:00,55.6,39.7,30.26,ENE,76,0.0,0.0,55,0.00,,,0.01,meteobridge,2013-12-15 00:45:00,
2013-12-14 16:50:00,55.0,39.2,30.26,ENE,75,0.9,0.9,55,0.00,,,0.01,meteobridge,2013-12-15 00:50:00,
2013-12-14 16:55:00,54.9,39.0,30.26,ENE,75,0.0,2.0,55,0.00,,,0.01,meteobridge,2013-12-15 00:55:00,
2013-12-14 17:00:00,54.5,38.7,30.26,ENE,75,0.0,0.0,55,0.00,,,0.01,meteobridge,2013-12-15 01:00:00,
2013-12-14 17:06:00,54.1,38.8,30.26,ENE,75,0.0,0.0,56,0.00,,,0.01,meteobridge,2013-12-15 01:06:00,
2013-12-14 17:11:00,53.4,38.5,30.26,ENE,75,0.0,0.0,57,0.00,,,0.01,meteobridge,2013-12-15 01:11:00,
2013-12-14 17:16:00,52.5,39.0,30.26,ENE,75,0.0,0.0,60,0.00,,,0.01,meteobridge,2013-12-15 01:16:00,
2013-12-14 17:21:00,51.4,39.2,30.26,ENE,76,0.0,0.0,63,0.00,,,0.01,meteobridge,2013-12-15 01:21:00,
2013-12-14 17:26:00,50.7,39.4,30.27,ENE,75,0.0,0.0,65,0.00,,,0.01,meteobridge,2013-12-15 01:26:00,
2013-12-14 17:31:00,50.2,39.2,30.27,ENE,75,0.0,0.0,66,0.00,,,0.01,meteobridge,2013-12-15 01:31:00,
2013-12-14 17:36:00,49.6,39.6,30.27,ENE,76,0.0,0.0,68,0.00,,,0.01,meteobridge,2013-12-15 01:36:00,
2013-12-14 17:42:00,48.9,38.8,30.27,ENE,75,0.0,0.0,68,0.00,,,0.01,meteobridge,2013-12-15 01:42:00,
2013-12-14 17:47:00,48.4,38.7,30.27,ENE,75,0.0,0.0,69,0.00,,,0.01,meteobridge,2013-12-15 01:47:00,
2013-12-14 17:52:00,47.7,38.3,30.28,ENE,75,0.0,0.0,70,0.00,,,0.01,meteobridge,2013-12-15 01:52:00,
2013-12-14 17:57:00,46.9,38.1,30.28,ENE,75,0.0,0.0,71,0.00,,,0.01,meteobridge,2013-12-15 01:57:00,
2013-12-14 18:02:00,46.4,38.3,30.28,ENE,75,0.0,0.0,73,0.00,,,0.01,meteobridge,2013-12-15 02:02:00,
2013-12-14 18:08:00,45.9,37.8,30.28,ENE,75,0.0,0.0,73,0.00,,,0.01,meteobridge,2013-12-15 02:08:00,
2013-12-14 18:13:00,45.3,37.6,30.28,ENE,76,0.0,0.0,74,0.00,,,0.01,meteobridge,2013-12-15 02:13:00,
2013-12-14 18:18:00,45.0,37.6,30.28,ENE,75,0.0,0.0,75,0.00,,,0.01,meteobridge,2013-12-15 02:18:00,
2013-12-14 18:23:00,44.8,37.4,30.29,ENE,75,0.0,0.0,75,0.00,,,0.01,meteobridge,2013-12-15 02:23:00,
2013-12-14 18:28:00,44.2,36.9,30.29,ENE,75,0.0,0.0,75,0.00,,,0.01,meteobridge,2013-12-15 02:28:00,
2013-12-14 18:33:00,43.9,36.9,30.29,ENE,75,0.0,0.0,76,0.00,,,0.01,meteobridge,2013-12-15 02:33:00,
2013-12-14 18:39:00,43.5,36.9,30.29,ENE,75,0.0,0.0,77,0.00,,,0.01,meteobridge,2013-12-15 02:39:00,
2013-12-14 18:44:00,43.3,36.7,30.29,ENE,76,0.0,0.0,77,0.00,,,0.01,meteobridge,2013-12-15 02:44:00,
2013-12-14 18:49:00,43.0,36.7,30.29,ENE,75,0.0,0.0,78,0.00,,,0.01,meteobridge,2013-12-15 02:49:00,
2013-12-14 18:54:00,42.8,36.7,30.29,ENE,75,0.0,0.0,79,0.00,,,0.01,meteobridge,2013-12-15 02:54:00,
2013-12-14 18:59:00,42.3,36.5,30.29,ENE,75,0.0,0.0,80,0.00,,,0.01,meteobridge,2013-12-15 02:59:00,
2013-12-14 19:04:00,42.1,36.7,30.29,ENE,75,0.0,0.0,81,0.00,,,0.01,meteobridge,2013-12-15 03:04:00,
2013-12-14 19:10:00,41.9,36.5,30.29,ENE,75,0.0,0.0,81,0.00,,,0.01,meteobridge,2013-12-15 03:10:00,
2013-12-14 19:15:00,41.5,36.1,30.29,ENE,76,0.0,0.0,81,0.00,,,0.01,meteobridge,2013-12-15 03:15:00,
2013-12-14 19:20:00,41.2,36.1,30.29,ENE,75,0.0,0.0,82,0.00,,,0.01,meteobridge,2013-12-15 03:20:00,
2013-12-14 19:25:00,41.0,36.3,30.29,ENE,75,0.0,0.0,83,0.00,,,0.01,meteobridge,2013-12-15 03:25:00,
2013-12-14 19:30:00,40.8,36.1,30.29,ENE,75,0.0,0.0,83,0.00,,,0.01,meteobridge,2013-12-15 03:30:00,
2013-12-14 19:35:00,40.5,35.8,30.29,ENE,75,0.0,0.0,83,0.00,,,0.01,meteobridge,2013-12-15 03:35:00,
2013-12-14 19:41:00,39.9,35.2,30.30,ENE,76,0.0,0.0,83,0.00,,,0.01,meteobridge,2013-12-15 03:41:00,
2013-12-14 19:46:00,39.7,35.2,30.30,ENE,75,0.0,0.0,84,0.00,,,0.01,meteobridge,2013-12-15 03:46:00,
2013-12-14 19:51:00,39.6,35.4,30.30,ENE,75,0.0,0.0,85,0.00,,,0.01,meteobridge,2013-12-15 03:51:00,
2013-12-14 19:56:00,39.4,35.2,30.30,ENE,76,0.0,0.0,85,0.00,,,0.01,meteobridge,2013-12-15 03:56:00,
2013-12-14 20:01:00,39.0,34.9,30.30,ENE,75,0.0,0.0,85,0.00,,,0.01,meteobridge,2013-12-15 04:01:00,
2013-12-14 20:06:00,38.7,34.5,30.30,ENE,75,0.0,0.0,85,0.00,,,0.01,meteobridge,2013-12-15 04:06:00,
2013-12-14 20:12:00,38.5,34.7,30.30,ENE,76,0.0,0.0,86,0.00,,,0.01,meteobridge,2013-12-15 04:12:00,
2013-12-14 20:17:00,38.3,34.5,30.30,ENE,75,0.0,0.0,86,0.00,,,0.01,meteobridge,2013-12-15 04:17:00,
2013-12-14 20:22:00,38.1,34.5,30.30,ENE,75,0.0,0.0,87,0.00,,,0.01,meteobridge,2013-12-15 04:22:00,
2013-12-14 20:27:00,38.3,34.7,30.30,ENE,75,0.0,0.0,87,0.00,,,0.01,meteobridge,2013-12-15 04:27:00,
2013-12-14 20:32:00,38.3,35.1,30.30,ENE,75,0.0,0.0,88,0.00,,,0.01,meteobridge,2013-12-15 04:32:00,
2013-12-14 20:37:00,38.1,34.9,30.30,ENE,75,0.0,0.0,88,0.00,,,0.01,meteobridge,2013-12-15 04:37:00,
2013-12-14 20:43:00,37.9,34.3,30.30,ENE,76,0.0,0.0,87,0.00,,,0.01,meteobridge,2013-12-15 04:43:00,
2013-12-14 20:48:00,37.8,34.5,30.30,ENE,76,0.0,0.0,88,0.00,,,0.01,meteobridge,2013-12-15 04:48:00,
2013-12-14 20:53:00,37.4,34.2,30.31,ENE,75,0.0,0.0,88,0.00,,,0.01,meteobridge,2013-12-15 04:53:00,
2013-12-14 20:58:00,37.2,34.0,30.31,ENE,76,0.0,0.0,88,0.00,,,0.01,meteobridge,2013-12-15 04:58:00,
2013-12-14 21:01:00,37.2,34.0,30.31,ENE,76,0.0,0.0,88,0.00,,,0.01,meteobridge,2013-12-15 05:01:00,
2013-12-14 21:03:00,37.2,34.0,30.31,ENE,76,0.0,0.0,88,0.00,,,0.01,meteobridge,2013-12-15 05:03:00,
2013-12-14 21:07:00,37.0,34.2,30.31,ENE,75,0.0,0.0,89,0.00,,,0.01,meteobridge,2013-12-15 05:07:00,
2013-12-14 21:08:00,37.0,34.2,30.31,ENE,75,0.0,0.0,89,0.00,,,0.01,meteobridge,2013-12-15 05:08:00,
2013-12-14 21:13:00,37.0,34.2,30.31,ENE,76,0.0,0.0,89,0.00,,,0.01,meteobridge,2013-12-15 05:13:00,
2013-12-14 21:16:00,36.9,34.0,30.31,ENE,75,0.0,0.0,89,0.00,,,0.01,meteobridge,2013-12-15 05:16:00,
2013-12-14 21:21:00,36.9,34.0,30.31,ENE,75,0.0,0.0,89,0.00,,,0.01,meteobridge,2013-12-15 05:21:00,
2013-12-14 21:26:00,36.7,33.8,30.30,ENE,75,0.0,0.0,89,0.00,,,0.01,meteobridge,2013-12-15 05:26:00,
2013-12-14 21:31:00,36.7,33.8,30.30,ENE,76,0.0,0.0,89,0.00,,,0.01,meteobridge,2013-12-15 05:31:00,
2013-12-14 21:36:00,36.7,33.8,30.30,ENE,75,0.0,0.0,89,0.00,,,0.01,meteobridge,2013-12-15 05:36:00,
2013-12-14 21:42:00,36.5,33.6,30.31,ENE,75,0.0,0.0,89,0.00,,,0.01,meteobridge,2013-12-15 05:42:00,
2013-12-14 21:47:00,36.5,33.8,30.31,ENE,76,0.0,0.0,90,0.00,,,0.01,meteobridge,2013-12-15 05:47:00,
2013-12-14 21:52:00,36.3,33.4,30.31,ENE,75,0.0,0.0,89,0.00,,,0.01,meteobridge,2013-12-15 05:52:00,
2013-12-14 21:57:00,36.1,33.4,30.31,ENE,76,0.0,0.0,90,0.00,,,0.01,meteobridge,2013-12-15 05:57:00,
2013-12-14 22:02:00,36.0,33.3,30.31,ENE,75,0.0,0.0,90,0.00,,,0.01,meteobridge,2013-12-15 06:02:00,
2013-12-14 22:07:00,35.8,33.1,30.31,ENE,76,0.0,0.0,90,0.00,,,0.01,meteobridge,2013-12-15 06:07:00,
2013-12-14 22:13:00,35.8,33.1,30.31,ENE,75,0.0,0.0,90,0.00,,,0.01,meteobridge,2013-12-15 06:13:00,
2013-12-14 22:18:00,35.6,32.9,30.31,ENE,75,0.0,0.0,90,0.00,,,0.01,meteobridge,2013-12-15 06:18:00,
2013-12-14 22:23:00,35.4,32.7,30.31,ENE,75,0.0,0.0,90,0.00,,,0.01,meteobridge,2013-12-15 06:23:00,
2013-12-14 22:28:00,35.4,32.7,30.31,ENE,75,0.0,0.0,90,0.00,,,0.01,meteobridge,2013-12-15 06:28:00,
2013-12-14 22:33:00,35.2,32.9,30.31,ENE,75,0.0,0.0,91,0.00,,,0.01,meteobridge,2013-12-15 06:33:00,
2013-12-14 22:38:00,35.2,32.9,30.32,ENE,76,0.0,0.0,91,0.00,,,0.01,meteobridge,2013-12-15 06:38:00,
2013-12-14 22:44:00,35.1,32.7,30.32,ENE,75,0.0,0.0,91,0.00,,,0.01,meteobridge,2013-12-15 06:44:00,
2013-12-14 22:49:00,35.1,32.7,30.32,ENE,76,0.0,0.0,91,0.00,,,0.01,meteobridge,2013-12-15 06:49:00,
2013-12-14 22:54:00,35.1,32.7,30.32,ENE,75,0.0,0.0,91,0.00,,,0.01,meteobridge,2013-12-15 06:54:00,
2013-12-14 22:59:00,34.7,32.4,30.32,ENE,75,0.0,0.0,91,0.00,,,0.01,meteobridge,2013-12-15 06:59:00,
2013-12-14 23:04:00,34.5,32.2,30.32,ENE,75,0.0,0.0,91,0.00,,,0.01,meteobridge,2013-12-15 07:04:00,
2013-12-14 23:09:00,34.3,32.0,30.32,ENE,75,0.0,0.0,91,0.00,,,0.01,meteobridge,2013-12-15 07:09:00,
2013-12-14 23:15:00,34.3,32.0,30.32,ENE,75,0.0,0.0,91,0.00,,,0.01,meteobridge,2013-12-15 07:15:00,
2013-12-14 23:20:00,34.2,31.8,30.32,ENE,75,0.0,0.0,91,0.00,,,0.01,meteobridge,2013-12-15 07:20:00,
2013-12-14 23:25:00,34.2,32.0,30.32,ENE,75,0.0,0.0,92,0.00,,,0.01,meteobridge,2013-12-15 07:25:00,
2013-12-14 23:30:00,34.2,32.0,30.32,ENE,75,0.0,0.0,92,0.00,,,0.01,meteobridge,2013-12-15 07:30:00,
2013-12-14 23:35:00,34.3,32.2,30.32,ENE,75,0.0,0.0,92,0.00,,,0.01,meteobridge,2013-12-15 07:35:00,
2013-12-14 23:40:00,34.3,32.2,30.32,ENE,75,0.0,0.0,92,0.00,,,0.01,meteobridge,2013-12-15 07:40:00,
2013-12-14 23:46:00,34.3,32.2,30.32,ENE,75,0.0,0.9,92,0.00,,,0.01,meteobridge,2013-12-15 07:46:00,
2013-12-14 23:51:00,34.0,31.6,30.32,ENE,76,0.0,0.0,91,0.00,,,0.01,meteobridge,2013-12-15 07:51:00,
2013-12-14 23:56:00,33.6,31.3,30.32,ENE,76,0.0,0.0,91,0.00,,,0.01,meteobridge,2013-12-15 07:56:00,